sensor_id;sensor_type;location;lat;lon;timestamp;pressure;altitude;pressure_sealevel;temperature;humidity
32197;BME280;18697;42.770;23.400;2023-05-28T00:02:05;95498.91;;;20.08;67.80
32197;BME280;18697;42.770;23.400;2023-05-28T00:04:33;95496.84;;;20.09;67.79
32197;BME280;18697;42.770;23.400;2023-05-28T00:06:59;95497.69;;;19.55;68.66
32197;BME280;18697;42.770;23.400;2023-05-28T00:09:24;95504.09;;;19.25;70.94
32197;BME280;18697;42.770;23.400;2023-05-28T00:11:49;95499.00;;;18.47;71.81
32197;BME280;18697;42.770;23.400;2023-05-28T00:14:15;95507.69;;;18.49;74.06
32197;BME280;18697;42.770;23.400;2023-05-28T00:16:41;95503.19;;;18.76;73.06
32197;BME280;18697;42.770;23.400;2023-05-28T00:19:08;95495.44;;;18.88;72.86
32197;BME280;18697;42.770;23.400;2023-05-28T00:21:34;95496.75;;;19.17;71.97
32197;BME280;18697;42.770;23.400;2023-05-28T00:24:02;95490.72;;;19.31;70.98
32197;BME280;18697;42.770;23.400;2023-05-28T00:26:28;95485.66;;;19.54;70.36
32197;BME280;18697;42.770;23.400;2023-05-28T00:28:53;95482.84;;;19.54;69.66
32197;BME280;18697;42.770;23.400;2023-05-28T00:31:19;95475.81;;;19.12;71.14
32197;BME280;18697;42.770;23.400;2023-05-28T00:33:44;95481.19;;;19.10;71.25
32197;BME280;18697;42.770;23.400;2023-05-28T00:36:11;95473.00;;;19.12;71.30
32197;BME280;18697;42.770;23.400;2023-05-28T00:38:37;95476.06;;;19.14;71.01
32197;BME280;18697;42.770;23.400;2023-05-28T00:41:02;95473.63;;;19.29;70.94
32197;BME280;18697;42.770;23.400;2023-05-28T00:43:27;95472.38;;;19.25;71.04
32197;BME280;18697;42.770;23.400;2023-05-28T00:45:57;95470.31;;;19.25;70.85
32197;BME280;18697;42.770;23.400;2023-05-28T00:48:23;95474.75;;;19.15;71.29
32197;BME280;18697;42.770;23.400;2023-05-28T00:50:49;95477.56;;;19.15;71.59
32197;BME280;18697;42.770;23.400;2023-05-28T00:53:15;95473.06;;;18.65;73.08
32197;BME280;18697;42.770;23.400;2023-05-28T00:55:41;95478.78;;;18.90;72.59
32197;BME280;18697;42.770;23.400;2023-05-28T00:58:07;95472.53;;;18.73;72.54
32197;BME280;18697;42.770;23.400;2023-05-28T01:00:36;95474.97;;;18.46;73.75
32197;BME280;18697;42.770;23.400;2023-05-28T01:03:02;95472.66;;;18.50;74.66
32197;BME280;18697;42.770;23.400;2023-05-28T01:05:28;95472.28;;;18.24;74.92
32197;BME280;18697;42.770;23.400;2023-05-28T01:07:58;95464.00;;;18.43;75.03
32197;BME280;18697;42.770;23.400;2023-05-28T01:10:24;95458.00;;;18.57;74.13
32197;BME280;18697;42.770;23.400;2023-05-28T01:12:49;95462.72;;;18.85;73.10
32197;BME280;18697;42.770;23.400;2023-05-28T01:15:15;95462.41;;;18.94;72.90
32197;BME280;18697;42.770;23.400;2023-05-28T01:17:41;95458.25;;;19.30;71.37
32197;BME280;18697;42.770;23.400;2023-05-28T01:20:07;95451.53;;;19.33;71.06
32197;BME280;18697;42.770;23.400;2023-05-28T01:22:37;95453.63;;;19.57;70.02
32197;BME280;18697;42.770;23.400;2023-05-28T01:25:06;95450.53;;;19.61;69.67
32197;BME280;18697;42.770;23.400;2023-05-28T01:27:39;95454.50;;;19.71;69.45
32197;BME280;18697;42.770;23.400;2023-05-28T01:30:06;95452.28;;;19.64;68.75
32197;BME280;18697;42.770;23.400;2023-05-28T01:32:37;95440.78;;;19.62;69.92
32197;BME280;18697;42.770;23.400;2023-05-28T01:35:04;95438.56;;;19.49;69.07
32197;BME280;18697;42.770;23.400;2023-05-28T01:37:31;95439.56;;;19.03;71.61
32197;BME280;18697;42.770;23.400;2023-05-28T01:39:59;95438.88;;;18.91;72.05
32197;BME280;18697;42.770;23.400;2023-05-28T01:42:28;95447.16;;;18.37;74.21
32197;BME280;18697;42.770;23.400;2023-05-28T01:44:55;95449.19;;;18.42;75.12
32197;BME280;18697;42.770;23.400;2023-05-28T01:47:21;95451.94;;;18.06;75.41
32197;BME280;18697;42.770;23.400;2023-05-28T01:49:47;95446.78;;;18.11;75.77
32197;BME280;18697;42.770;23.400;2023-05-28T01:52:13;95450.06;;;18.20;76.08
32197;BME280;18697;42.770;23.400;2023-05-28T01:54:39;95439.47;;;18.43;75.06
32197;BME280;18697;42.770;23.400;2023-05-28T01:57:05;95438.63;;;18.54;74.20
32197;BME280;18697;42.770;23.400;2023-05-28T01:59:31;95441.06;;;18.74;73.49
32197;BME280;18697;42.770;23.400;2023-05-28T02:01:57;95446.84;;;18.87;73.30
32197;BME280;18697;42.770;23.400;2023-05-28T02:04:22;95442.38;;;19.03;72.05
32197;BME280;18697;42.770;23.400;2023-05-28T02:06:48;95435.59;;;19.17;71.48
32197;BME280;18697;42.770;23.400;2023-05-28T02:09:13;95446.97;;;19.30;70.84
32197;BME280;18697;42.770;23.400;2023-05-28T02:11:38;95447.97;;;19.33;70.45
32197;BME280;18697;42.770;23.400;2023-05-28T02:14:04;95440.41;;;19.47;70.08
32197;BME280;18697;42.770;23.400;2023-05-28T02:16:30;95447.75;;;19.55;69.66
32197;BME280;18697;42.770;23.400;2023-05-28T02:18:56;95434.47;;;19.50;70.17
32197;BME280;18697;42.770;23.400;2023-05-28T02:21:23;95444.72;;;19.53;69.64
32197;BME280;18697;42.770;23.400;2023-05-28T02:23:49;95446.50;;;19.51;69.90
32197;BME280;18697;42.770;23.400;2023-05-28T02:26:14;95442.91;;;19.56;69.96
32197;BME280;18697;42.770;23.400;2023-05-28T02:28:41;95443.94;;;19.53;69.85
32197;BME280;18697;42.770;23.400;2023-05-28T02:31:12;95444.78;;;18.52;73.92
32197;BME280;18697;42.770;23.400;2023-05-28T02:33:41;95450.97;;;18.45;74.28
32197;BME280;18697;42.770;23.400;2023-05-28T02:36:08;95458.16;;;18.41;74.86
32197;BME280;18697;42.770;23.400;2023-05-28T02:38:34;95457.03;;;18.55;74.09
32197;BME280;18697;42.770;23.400;2023-05-28T02:41:00;95473.91;;;18.55;74.02
32197;BME280;18697;42.770;23.400;2023-05-28T02:43:25;95458.72;;;18.69;73.50
32197;BME280;18697;42.770;23.400;2023-05-28T02:45:51;95450.94;;;18.86;72.63
32197;BME280;18697;42.770;23.400;2023-05-28T02:48:16;95456.38;;;19.09;71.87
32197;BME280;18697;42.770;23.400;2023-05-28T02:50:41;95461.63;;;18.11;75.60
32197;BME280;18697;42.770;23.400;2023-05-28T02:53:07;95463.63;;;18.57;74.50
32197;BME280;18697;42.770;23.400;2023-05-28T02:55:32;95465.31;;;18.77;73.11
32197;BME280;18697;42.770;23.400;2023-05-28T02:57:58;95462.09;;;18.97;72.19
32197;BME280;18697;42.770;23.400;2023-05-28T03:00:23;95451.75;;;19.11;71.39
32197;BME280;18697;42.770;23.400;2023-05-28T03:02:49;95459.53;;;19.29;71.15
32197;BME280;18697;42.770;23.400;2023-05-28T03:05:14;95457.41;;;19.35;70.77
32197;BME280;18697;42.770;23.400;2023-05-28T03:07:40;95452.75;;;19.14;71.14
32197;BME280;18697;42.770;23.400;2023-05-28T03:10:05;95453.81;;;19.35;70.72
32197;BME280;18697;42.770;23.400;2023-05-28T03:12:31;95454.25;;;19.45;70.27
32197;BME280;18697;42.770;23.400;2023-05-28T03:14:57;95455.22;;;19.53;70.01
32197;BME280;18697;42.770;23.400;2023-05-28T03:17:22;95458.81;;;19.48;69.82
32197;BME280;18697;42.770;23.400;2023-05-28T03:19:48;95455.69;;;19.57;69.70
32197;BME280;18697;42.770;23.400;2023-05-28T03:22:13;95448.53;;;19.56;69.90
32197;BME280;18697;42.770;23.400;2023-05-28T03:24:38;95457.97;;;19.58;69.59
32197;BME280;18697;42.770;23.400;2023-05-28T03:27:04;95470.41;;;19.68;69.27
32197;BME280;18697;42.770;23.400;2023-05-28T03:29:31;95469.06;;;19.75;68.93
32197;BME280;18697;42.770;23.400;2023-05-28T03:31:56;95467.03;;;19.76;69.20
32197;BME280;18697;42.770;23.400;2023-05-28T03:34:21;95463.41;;;19.51;69.50
32197;BME280;18697;42.770;23.400;2023-05-28T03:36:49;95462.41;;;19.48;70.21
32197;BME280;18697;42.770;23.400;2023-05-28T03:39:14;95462.94;;;19.47;70.19
32197;BME280;18697;42.770;23.400;2023-05-28T03:41:40;95462.16;;;19.46;70.17
32197;BME280;18697;42.770;23.400;2023-05-28T03:44:05;95453.47;;;19.44;70.16
32197;BME280;18697;42.770;23.400;2023-05-28T03:46:31;95453.13;;;19.29;70.75
32197;BME280;18697;42.770;23.400;2023-05-28T03:48:56;95468.56;;;19.22;71.41
32197;BME280;18697;42.770;23.400;2023-05-28T03:51:22;95454.19;;;19.26;70.64
32197;BME280;18697;42.770;23.400;2023-05-28T03:53:49;95464.50;;;19.42;70.66
32197;BME280;18697;42.770;23.400;2023-05-28T03:56:14;95463.41;;;19.51;70.11
32197;BME280;18697;42.770;23.400;2023-05-28T03:58:40;95463.63;;;19.58;70.03
32197;BME280;18697;42.770;23.400;2023-05-28T04:01:05;95466.84;;;19.68;69.54
32197;BME280;18697;42.770;23.400;2023-05-28T04:03:30;95468.84;;;19.73;69.50
32197;BME280;18697;42.770;23.400;2023-05-28T04:05:56;95472.72;;;19.70;69.93
32197;BME280;18697;42.770;23.400;2023-05-28T04:08:21;95463.50;;;19.40;70.60
32197;BME280;18697;42.770;23.400;2023-05-28T04:10:47;95464.69;;;19.50;70.26
32197;BME280;18697;42.770;23.400;2023-05-28T04:13:12;95471.38;;;19.47;70.27
32197;BME280;18697;42.770;23.400;2023-05-28T04:15:38;95474.19;;;19.22;71.82
32197;BME280;18697;42.770;23.400;2023-05-28T04:18:03;95472.88;;;18.93;72.56
32197;BME280;18697;42.770;23.400;2023-05-28T04:20:28;95480.19;;;18.72;74.10
32197;BME280;18697;42.770;23.400;2023-05-28T04:22:54;95476.84;;;18.74;74.16
32197;BME280;18697;42.770;23.400;2023-05-28T04:25:20;95477.44;;;19.02;72.81
32197;BME280;18697;42.770;23.400;2023-05-28T04:27:46;95477.66;;;19.04;73.05
32197;BME280;18697;42.770;23.400;2023-05-28T04:30:11;95475.66;;;18.99;72.96
32197;BME280;18697;42.770;23.400;2023-05-28T04:32:37;95476.91;;;19.03;72.97
32197;BME280;18697;42.770;23.400;2023-05-28T04:35:06;95468.56;;;19.22;71.76
32197;BME280;18697;42.770;23.400;2023-05-28T04:37:33;95464.75;;;19.20;72.54
32197;BME280;18697;42.770;23.400;2023-05-28T04:40:03;95463.97;;;19.19;72.48
32197;BME280;18697;42.770;23.400;2023-05-28T04:42:29;95475.09;;;19.06;73.09
32197;BME280;18697;42.770;23.400;2023-05-28T04:44:55;95471.56;;;19.00;73.88
32197;BME280;18697;42.770;23.400;2023-05-28T04:47:20;95476.91;;;19.03;73.69
32197;BME280;18697;42.770;23.400;2023-05-28T04:49:47;95472.81;;;19.04;73.05
32197;BME280;18697;42.770;23.400;2023-05-28T04:52:14;95474.19;;;19.22;72.43
32197;BME280;18697;42.770;23.400;2023-05-28T04:54:39;95482.41;;;19.20;72.76
32197;BME280;18697;42.770;23.400;2023-05-28T04:57:04;95480.00;;;19.00;73.31
32197;BME280;18697;42.770;23.400;2023-05-28T04:59:30;95483.91;;;19.21;72.63
32197;BME280;18697;42.770;23.400;2023-05-28T05:01:56;95475.19;;;18.95;73.68
32197;BME280;18697;42.770;23.400;2023-05-28T05:04:21;95479.97;;;19.06;73.14
32197;BME280;18697;42.770;23.400;2023-05-28T05:06:46;95481.19;;;19.10;72.97
32197;BME280;18697;42.770;23.400;2023-05-28T05:09:12;95468.19;;;19.31;72.22
32197;BME280;18697;42.770;23.400;2023-05-28T05:11:37;95468.56;;;19.47;72.36
32197;BME280;18697;42.770;23.400;2023-05-28T05:14:03;95473.53;;;19.65;72.82
32197;BME280;18697;42.770;23.400;2023-05-28T05:16:29;95470.66;;;19.71;73.19
32197;BME280;18697;42.770;23.400;2023-05-28T05:18:54;95470.78;;;19.84;72.24
32197;BME280;18697;42.770;23.400;2023-05-28T05:21:20;95466.00;;;19.97;71.63
32197;BME280;18697;42.770;23.400;2023-05-28T05:23:45;95470.19;;;20.10;71.44
32197;BME280;18697;42.770;23.400;2023-05-28T05:26:11;95467.13;;;20.08;71.71
32197;BME280;18697;42.770;23.400;2023-05-28T05:28:38;95467.38;;;20.10;71.17
32197;BME280;18697;42.770;23.400;2023-05-28T05:31:03;95463.78;;;20.09;71.09
32197;BME280;18697;42.770;23.400;2023-05-28T05:33:29;95472.78;;;20.08;70.73
32197;BME280;18697;42.770;23.400;2023-05-28T05:35:55;95469.81;;;20.19;70.46
32197;BME280;18697;42.770;23.400;2023-05-28T05:38:20;95461.06;;;20.22;70.07
32197;BME280;18697;42.770;23.400;2023-05-28T05:40:45;95475.47;;;20.19;70.25
32197;BME280;18697;42.770;23.400;2023-05-28T05:43:11;95475.69;;;20.21;70.71
32197;BME280;18697;42.770;23.400;2023-05-28T05:45:36;95474.69;;;20.18;71.36
32197;BME280;18697;42.770;23.400;2023-05-28T05:48:02;95485.72;;;19.97;71.86
32197;BME280;18697;42.770;23.400;2023-05-28T05:50:27;95476.34;;;20.08;71.38
32197;BME280;18697;42.770;23.400;2023-05-28T05:52:53;95479.09;;;20.14;71.77
32197;BME280;18697;42.770;23.400;2023-05-28T05:55:19;95478.28;;;20.19;71.68
32197;BME280;18697;42.770;23.400;2023-05-28T05:57:45;95484.84;;;20.27;71.29
32197;BME280;18697;42.770;23.400;2023-05-28T06:00:11;95487.50;;;20.19;72.18
32197;BME280;18697;42.770;23.400;2023-05-28T06:02:36;95486.75;;;20.19;72.20
32197;BME280;18697;42.770;23.400;2023-05-28T06:05:03;95486.66;;;20.24;71.88
32197;BME280;18697;42.770;23.400;2023-05-28T06:07:29;95487.19;;;20.23;71.97
32197;BME280;18697;42.770;23.400;2023-05-28T06:09:54;95488.44;;;20.27;71.96
32197;BME280;18697;42.770;23.400;2023-05-28T06:12:23;95483.25;;;20.31;72.23
32197;BME280;18697;42.770;23.400;2023-05-28T06:14:48;95482.03;;;20.27;72.62
32197;BME280;18697;42.770;23.400;2023-05-28T06:17:14;95487.66;;;20.27;73.20
32197;BME280;18697;42.770;23.400;2023-05-28T06:19:41;95487.03;;;20.15;73.26
32197;BME280;18697;42.770;23.400;2023-05-28T06:22:06;95497.78;;;20.17;73.35
32197;BME280;18697;42.770;23.400;2023-05-28T06:24:33;95495.50;;;20.15;73.35
32197;BME280;18697;42.770;23.400;2023-05-28T06:26:58;95496.31;;;20.10;74.51
32197;BME280;18697;42.770;23.400;2023-05-28T06:29:23;95490.31;;;20.00;74.23
32197;BME280;18697;42.770;23.400;2023-05-28T06:31:49;95496.72;;;20.01;75.04
32197;BME280;18697;42.770;23.400;2023-05-28T06:34:15;95501.19;;;19.91;75.24
32197;BME280;18697;42.770;23.400;2023-05-28T06:36:42;95500.06;;;19.99;74.62
32197;BME280;18697;42.770;23.400;2023-05-28T06:39:08;95503.41;;;19.98;74.61
32197;BME280;18697;42.770;23.400;2023-05-28T06:41:34;95506.94;;;20.04;74.17
32197;BME280;18697;42.770;23.400;2023-05-28T06:43:59;95504.41;;;20.19;73.22
32197;BME280;18697;42.770;23.400;2023-05-28T06:46:25;95496.50;;;20.18;73.84
32197;BME280;18697;42.770;23.400;2023-05-28T06:48:51;95505.00;;;20.12;74.05
32197;BME280;18697;42.770;23.400;2023-05-28T06:51:16;95505.78;;;20.13;73.99
32197;BME280;18697;42.770;23.400;2023-05-28T06:53:43;95497.63;;;20.09;73.90
32197;BME280;18697;42.770;23.400;2023-05-28T06:56:08;95495.09;;;20.06;73.33
32197;BME280;18697;42.770;23.400;2023-05-28T06:58:34;95501.19;;;20.10;73.52
32197;BME280;18697;42.770;23.400;2023-05-28T07:00:59;95512.66;;;20.17;73.61
32197;BME280;18697;42.770;23.400;2023-05-28T07:03:27;95503.19;;;20.15;72.82
32197;BME280;18697;42.770;23.400;2023-05-28T07:05:52;95506.41;;;20.24;73.21
32197;BME280;18697;42.770;23.400;2023-05-28T07:08:18;95499.19;;;20.29;72.25
32197;BME280;18697;42.770;23.400;2023-05-28T07:10:43;95496.94;;;20.46;72.16
32197;BME280;18697;42.770;23.400;2023-05-28T07:13:09;95498.69;;;20.49;72.78
32197;BME280;18697;42.770;23.400;2023-05-28T07:15:34;95496.41;;;20.48;72.61
32197;BME280;18697;42.770;23.400;2023-05-28T07:18:00;95500.91;;;20.56;72.00
32197;BME280;18697;42.770;23.400;2023-05-28T07:20:26;95499.34;;;20.37;72.06
32197;BME280;18697;42.770;23.400;2023-05-28T07:22:52;95497.06;;;19.92;70.69
32197;BME280;18697;42.770;23.400;2023-05-28T07:25:17;95503.06;;;19.28;71.08
32197;BME280;18697;42.770;23.400;2023-05-28T07:27:42;95498.81;;;18.81;72.38
32197;BME280;18697;42.770;23.400;2023-05-28T07:30:08;95502.34;;;18.46;74.77
32197;BME280;18697;42.770;23.400;2023-05-28T07:32:34;95498.72;;;18.51;76.58
32197;BME280;18697;42.770;23.400;2023-05-28T07:34:59;95495.88;;;18.56;77.22
32197;BME280;18697;42.770;23.400;2023-05-28T07:37:25;95499.34;;;18.27;76.01
32197;BME280;18697;42.770;23.400;2023-05-28T07:39:50;95498.53;;;18.37;77.96
32197;BME280;18697;42.770;23.400;2023-05-28T07:42:16;95499.84;;;18.31;77.57
32197;BME280;18697;42.770;23.400;2023-05-28T07:44:41;95506.25;;;18.31;77.99
32197;BME280;18697;42.770;23.400;2023-05-28T07:47:06;95506.72;;;18.35;78.58
32197;BME280;18697;42.770;23.400;2023-05-28T07:49:32;95500.34;;;18.35;77.12
32197;BME280;18697;42.770;23.400;2023-05-28T07:51:57;95508.69;;;18.52;78.03
32197;BME280;18697;42.770;23.400;2023-05-28T07:54:22;95500.13;;;18.74;76.98
32197;BME280;18697;42.770;23.400;2023-05-28T07:56:48;95496.00;;;18.81;76.79
32197;BME280;18697;42.770;23.400;2023-05-28T07:59:14;95494.78;;;19.06;75.86
32197;BME280;18697;42.770;23.400;2023-05-28T08:01:39;95487.53;;;19.16;76.06
32197;BME280;18697;42.770;23.400;2023-05-28T08:04:05;95476.16;;;19.57;74.98
32197;BME280;18697;42.770;23.400;2023-05-28T08:06:31;95484.34;;;19.61;71.94
32197;BME280;18697;42.770;23.400;2023-05-28T08:08:57;95478.00;;;19.79;73.39
32197;BME280;18697;42.770;23.400;2023-05-28T08:11:23;95483.69;;;20.17;72.73
32197;BME280;18697;42.770;23.400;2023-05-28T08:13:49;95477.78;;;20.39;71.40
32197;BME280;18697;42.770;23.400;2023-05-28T08:16:14;95478.25;;;20.62;70.43
32197;BME280;18697;42.770;23.400;2023-05-28T08:18:40;95490.59;;;20.59;68.88
32197;BME280;18697;42.770;23.400;2023-05-28T08:21:06;95482.84;;;20.46;69.96
32197;BME280;18697;42.770;23.400;2023-05-28T08:23:32;95479.00;;;20.44;69.11
32197;BME280;18697;42.770;23.400;2023-05-28T08:26:03;95488.50;;;20.22;68.32
32197;BME280;18697;42.770;23.400;2023-05-28T08:28:28;95490.47;;;20.27;70.88
32197;BME280;18697;42.770;23.400;2023-05-28T08:30:55;95477.78;;;20.39;70.10
32197;BME280;18697;42.770;23.400;2023-05-28T08:33:20;95478.56;;;20.40;69.32
32197;BME280;18697;42.770;23.400;2023-05-28T08:35:46;95492.81;;;20.66;70.23
32197;BME280;18697;42.770;23.400;2023-05-28T08:38:11;95492.44;;;20.75;70.99
32197;BME280;18697;42.770;23.400;2023-05-28T08:40:39;95497.47;;;20.63;71.01
32197;BME280;18697;42.770;23.400;2023-05-28T08:43:08;95491.06;;;20.63;70.25
32197;BME280;18697;42.770;23.400;2023-05-28T08:45:34;95489.38;;;20.54;67.98
32197;BME280;18697;42.770;23.400;2023-05-28T08:48:00;95498.56;;;20.36;67.79
32197;BME280;18697;42.770;23.400;2023-05-28T08:50:27;95496.63;;;20.07;68.04
32197;BME280;18697;42.770;23.400;2023-05-28T08:52:56;95499.53;;;20.01;69.94
32197;BME280;18697;42.770;23.400;2023-05-28T08:55:23;95500.66;;;19.68;69.54
32197;BME280;18697;42.770;23.400;2023-05-28T08:57:48;95506.94;;;19.50;70.69
32197;BME280;18697;42.770;23.400;2023-05-28T09:00:14;95501.97;;;19.31;72.76
32197;BME280;18697;42.770;23.400;2023-05-28T09:02:40;95504.19;;;19.14;73.06
32197;BME280;18697;42.770;23.400;2023-05-28T09:05:07;95499.84;;;19.13;73.70
32197;BME280;18697;42.770;23.400;2023-05-28T09:07:32;95502.91;;;19.15;74.46
32197;BME280;18697;42.770;23.400;2023-05-28T09:09:58;95494.84;;;19.30;72.78
32197;BME280;18697;42.770;23.400;2023-05-28T09:12:24;95494.38;;;19.51;73.56
32197;BME280;18697;42.770;23.400;2023-05-28T09:14:53;95499.84;;;19.73;74.21
32197;BME280;18697;42.770;23.400;2023-05-28T09:17:38;95490.66;;;19.91;72.17
32197;BME280;18697;42.770;23.400;2023-05-28T09:20:13;95489.44;;;19.62;69.99
32197;BME280;18697;42.770;23.400;2023-05-28T09:22:39;95504.50;;;19.35;73.62
32197;BME280;18697;42.770;23.400;2023-05-28T09:25:08;95505.41;;;19.24;72.67
32197;BME280;18697;42.770;23.400;2023-05-28T09:27:36;95495.63;;;19.31;75.14
32197;BME280;18697;42.770;23.400;2023-05-28T09:30:11;95500.66;;;19.38;73.92
32197;BME280;18697;42.770;23.400;2023-05-28T09:32:37;95494.72;;;19.42;74.10
32197;BME280;18697;42.770;23.400;2023-05-28T09:35:06;95500.28;;;19.23;74.21
32197;BME280;18697;42.770;23.400;2023-05-28T09:37:32;95496.56;;;19.09;73.88
32197;BME280;18697;42.770;23.400;2023-05-28T09:40:00;95491.38;;;18.83;74.29
32197;BME280;18697;42.770;23.400;2023-05-28T09:42:31;95495.63;;;18.95;75.30
32197;BME280;18697;42.770;23.400;2023-05-28T09:45:00;95496.19;;;18.88;73.19
32197;BME280;18697;42.770;23.400;2023-05-28T09:47:25;95499.78;;;18.89;73.95
32197;BME280;18697;42.770;23.400;2023-05-28T09:49:51;95497.47;;;18.87;74.84
32197;BME280;18697;42.770;23.400;2023-05-28T09:52:20;95498.25;;;18.88;73.41
32197;BME280;18697;42.770;23.400;2023-05-28T09:54:51;95493.19;;;18.81;73.53
32197;BME280;18697;42.770;23.400;2023-05-28T09:57:37;95494.94;;;18.84;74.66
32197;BME280;18697;42.770;23.400;2023-05-28T10:00:06;95493.59;;;18.96;74.34
32197;BME280;18697;42.770;23.400;2023-05-28T10:05:13;95497.31;;;18.74;72.52
32197;BME280;18697;42.770;23.400;2023-05-28T10:07:41;95498.63;;;18.67;73.05
32197;BME280;18697;42.770;23.400;2023-05-28T10:10:11;95507.03;;;18.73;73.99
32197;BME280;18697;42.770;23.400;2023-05-28T10:12:38;95507.06;;;18.67;73.24
32197;BME280;18697;42.770;23.400;2023-05-28T10:15:06;95507.41;;;18.53;73.68
32197;BME280;18697;42.770;23.400;2023-05-28T10:17:32;95505.59;;;18.55;74.55
32197;BME280;18697;42.770;23.400;2023-05-28T10:19:58;95498.16;;;18.58;74.86
32197;BME280;18697;42.770;23.400;2023-05-28T10:22:24;95499.16;;;18.66;73.91
32197;BME280;18697;42.770;23.400;2023-05-28T10:24:50;95500.06;;;18.85;73.88
32197;BME280;18697;42.770;23.400;2023-05-28T10:27:16;95491.81;;;18.93;72.99
32197;BME280;18697;42.770;23.400;2023-05-28T10:29:43;95499.41;;;19.03;72.38
32197;BME280;18697;42.770;23.400;2023-05-28T10:32:09;95503.72;;;19.10;72.14
32197;BME280;18697;42.770;23.400;2023-05-28T10:34:38;95494.84;;;19.30;73.08
32197;BME280;18697;42.770;23.400;2023-05-28T10:37:06;95470.91;;;19.43;70.38
32197;BME280;18697;42.770;23.400;2023-05-28T10:39:43;95473.06;;;19.61;70.71
32197;BME280;18697;42.770;23.400;2023-05-28T10:42:10;95476.00;;;19.74;70.07
32197;BME280;18697;42.770;23.400;2023-05-28T10:47:41;95466.81;;;19.44;68.97
32197;BME280;18697;42.770;23.400;2023-05-28T10:52:32;95470.81;;;19.54;68.79
32197;BME280;18697;42.770;23.400;2023-05-28T10:55:01;95467.72;;;19.57;68.97
32197;BME280;18697;42.770;23.400;2023-05-28T10:57:45;95470.06;;;19.78;69.34
32197;BME280;18697;42.770;23.400;2023-05-28T11:00:12;95461.09;;;19.55;67.97
32197;BME280;18697;42.770;23.400;2023-05-28T11:02:44;95461.09;;;19.55;68.18
32197;BME280;18697;42.770;23.400;2023-05-28T11:05:12;95455.53;;;19.44;69.20
32197;BME280;18697;42.770;23.400;2023-05-28T11:07:42;95447.28;;;19.51;68.64
32197;BME280;18697;42.770;23.400;2023-05-28T11:10:09;95448.75;;;19.82;69.48
32197;BME280;18697;42.770;23.400;2023-05-28T11:12:36;95451.84;;;20.22;67.34
32197;BME280;18697;42.770;23.400;2023-05-28T11:15:03;95447.53;;;20.40;66.67
32197;BME280;18697;42.770;23.400;2023-05-28T11:17:29;95444.25;;;20.54;66.23
32197;BME280;18697;42.770;23.400;2023-05-28T11:19:54;95443.19;;;20.57;64.76
32197;BME280;18697;42.770;23.400;2023-05-28T11:22:20;95444.09;;;20.65;65.31
32197;BME280;18697;42.770;23.400;2023-05-28T11:25:02;95440.41;;;20.71;64.30
32197;BME280;18697;42.770;23.400;2023-05-28T11:27:30;95447.44;;;20.96;65.63
32197;BME280;18697;42.770;23.400;2023-05-28T11:29:58;95454.25;;;21.19;65.32
32197;BME280;18697;42.770;23.400;2023-05-28T11:32:26;95448.78;;;21.40;63.94
32197;BME280;18697;42.770;23.400;2023-05-28T11:34:52;95445.72;;;21.25;62.26
32197;BME280;18697;42.770;23.400;2023-05-28T11:37:29;95447.47;;;21.28;64.20
32197;BME280;18697;42.770;23.400;2023-05-28T11:39:56;95435.34;;;21.14;64.99
32197;BME280;18697;42.770;23.400;2023-05-28T11:42:23;95430.16;;;20.86;63.93
32197;BME280;18697;42.770;23.400;2023-05-28T11:44:50;95431.13;;;20.89;65.04
32197;BME280;18697;42.770;23.400;2023-05-28T11:47:17;95435.22;;;20.75;64.79
32197;BME280;18697;42.770;23.400;2023-05-28T11:49:43;95422.97;;;20.72;65.60
32197;BME280;18697;42.770;23.400;2023-05-28T11:52:23;95428.06;;;20.36;65.04
32197;BME280;18697;42.770;23.400;2023-05-28T11:54:53;95430.03;;;20.22;65.74
32197;BME280;18697;42.770;23.400;2023-05-28T11:57:22;95432.53;;;20.07;66.76
32197;BME280;18697;42.770;23.400;2023-05-28T12:00:10;95424.09;;;20.26;66.76
32197;BME280;18697;42.770;23.400;2023-05-28T12:02:46;95436.78;;;20.38;66.58
32197;BME280;18697;42.770;23.400;2023-05-28T12:05:12;95430.56;;;20.21;66.09
32197;BME280;18697;42.770;23.400;2023-05-28T12:07:43;95430.34;;;20.00;67.48
32197;BME280;18697;42.770;23.400;2023-05-28T12:10:12;95426.91;;;20.07;67.50
32197;BME280;18697;42.770;23.400;2023-05-28T12:12:45;95422.34;;;20.23;68.28
32197;BME280;18697;42.770;23.400;2023-05-28T12:15:12;95433.78;;;20.30;66.47
32197;BME280;18697;42.770;23.400;2023-05-28T12:17:39;95430.53;;;20.45;67.00
32197;BME280;18697;42.770;23.400;2023-05-28T12:22:41;95430.34;;;20.75;64.49
32197;BME280;18697;42.770;23.400;2023-05-28T12:25:07;95422.44;;;20.55;63.95
32197;BME280;18697;42.770;23.400;2023-05-28T12:27:33;95420.22;;;20.29;64.87
32197;BME280;18697;42.770;23.400;2023-05-28T12:29:58;95414.72;;;20.18;64.16
32197;BME280;18697;42.770;23.400;2023-05-28T12:32:24;95414.03;;;20.12;65.56
32197;BME280;18697;42.770;23.400;2023-05-28T12:34:50;95416.41;;;20.26;65.56
32197;BME280;18697;42.770;23.400;2023-05-28T12:37:17;95408.56;;;20.19;64.77
32197;BME280;18697;42.770;23.400;2023-05-28T12:39:43;95410.44;;;20.11;65.62
32197;BME280;18697;42.770;23.400;2023-05-28T12:42:08;95411.97;;;20.12;66.94
32197;BME280;18697;42.770;23.400;2023-05-28T12:44:34;95415.84;;;20.09;65.93
32197;BME280;18697;42.770;23.400;2023-05-28T12:46:59;95407.56;;;20.17;66.40
32197;BME280;18697;42.770;23.400;2023-05-28T12:49:24;95405.97;;;20.02;65.98
32197;BME280;18697;42.770;23.400;2023-05-28T12:51:50;95410.38;;;20.17;67.14
32197;BME280;18697;42.770;23.400;2023-05-28T12:54:15;95416.56;;;20.34;67.02
32197;BME280;18697;42.770;23.400;2023-05-28T12:56:41;95418.31;;;20.37;67.25
32197;BME280;18697;42.770;23.400;2023-05-28T12:59:08;95412.44;;;20.35;67.39